Time;durP1;ratioP1;P1;durP2;ratioP2;P2;SDS_P1;SDS_P2;PMS_P1;PMS_P2;Temp;Humidity;BMP_temperature;BMP_pressure;BME280_temperature;BME280_humidity;BME280_pressure;Samples;Min_cycle;Max_cycle;Signal;HPM_P1;HPM_P2
2021/11/18 00:02:03;;;;;;;26.67;4.85;;;;;;;11.36;63.38;100424.28;4997699;28;20034;-71
2021/11/18 00:04:29;;;;;;;33.95;4.75;;;;;;;11.67;62.54;100406.16;5001895;28;20116;-72
2021/11/18 00:06:55;;;;;;;27.92;4.00;;;;;;;11.81;61.90;100398.66;4997890;28;20064;-71
2021/11/18 00:09:22;;;;;;;30.80;4.55;;;;;;;11.52;63.03;100379.63;4982541;28;20446;-71
2021/11/18 00:11:52;;;;;;;30.88;4.82;;;;;;;11.46;63.49;100390.50;4999615;28;20058;-72
2021/11/18 00:14:18;;;;;;;23.25;4.47;;;;;;;11.32;63.46;100388.03;4992952;28;20042;-72
2021/11/18 00:16:44;;;;;;;36.15;4.43;;;;;;;11.63;63.27;100386.09;5003818;28;20085;-71
2021/11/18 00:19:09;;;;;;;38.10;5.43;;;;;;;11.75;62.44;100394.19;5004605;28;20498;-70
2021/11/18 00:21:39;;;;;;;35.13;5.90;;;;;;;11.50;63.46;100394.41;5005268;28;20491;-70
2021/11/18 00:24:07;;;;;;;37.80;4.90;;;;;;;11.48;63.34;100400.03;5010224;28;20084;-71
2021/11/18 00:26:33;;;;;;;31.10;5.07;;;;;;;11.59;63.42;100403.81;5003750;28;20038;-71
2021/11/18 00:29:00;;;;;;;32.33;4.72;;;;;;;11.54;63.48;100417.19;5008072;28;20037;-71
2021/11/18 00:31:29;;;;;;;30.45;4.63;;;;;;;11.74;62.85;100418.72;5011627;28;20443;-70
2021/11/18 00:33:56;;;;;;;28.85;3.90;;;;;;;11.73;62.50;100411.69;5011352;28;20503;-70
2021/11/18 00:36:22;;;;;;;29.92;4.05;;;;;;;11.74;63.04;100403.34;5011892;28;20038;-71
2021/11/18 00:38:48;;;;;;;25.65;3.97;;;;;;;11.99;62.35;100394.19;5010081;28;20033;-71
2021/11/18 00:41:14;;;;;;;25.40;3.78;;;;;;;11.83;62.52;100393.03;5007634;28;20034;-70
2021/11/18 00:43:41;;;;;;;28.25;3.75;;;;;;;12.00;62.24;100393.16;5007243;28;20080;-71
2021/11/18 00:46:07;;;;;;;29.20;4.55;;;;;;;12.21;61.45;100397.13;5004907;28;20480;-71
2021/11/18 00:48:32;;;;;;;32.03;4.78;;;;;;;12.07;61.99;100390.34;5007954;28;20121;-70
2021/11/18 00:51:01;;;;;;;26.52;4.28;;;;;;;12.00;62.28;100385.91;5003938;28;20031;-69
2021/11/18 00:53:27;;;;;;;28.70;4.13;;;;;;;11.98;62.40;100370.94;5000725;28;20038;-70
2021/11/18 00:55:53;;;;;;;31.50;5.03;;;;;;;12.13;61.98;100370.50;5008396;28;20036;-71
2021/11/18 00:58:20;;;;;;;35.35;4.07;;;;;;;11.97;62.62;100390.91;5005414;28;20035;-69
2021/11/18 01:00:49;;;;;;;25.45;3.88;;;;;;;11.99;62.62;100391.47;5004336;28;20034;-69
2021/11/18 01:03:16;;;;;;;32.35;4.43;;;;;;;11.89;62.82;100413.69;5001608;28;20510;-71
2021/11/18 01:05:45;;;;;;;27.00;5.13;;;;;;;11.81;62.96;100409.44;5005508;28;20040;-70
2021/11/18 01:08:10;;;;;;;26.90;4.38;;;;;;;12.18;61.99;100418.38;5002222;28;20499;-70
2021/11/18 01:10:46;;;;;;;27.67;4.00;;;;;;;12.11;62.14;100405.00;5001131;28;20065;-70
2021/11/18 01:13:12;;;;;;;20.25;3.38;;;;;;;12.42;61.12;100411.91;5005255;28;20053;-70
2021/11/18 01:15:41;;;;;;;14.30;3.00;;;;;;;12.45;61.19;100402.50;5000552;28;20077;-70
2021/11/18 01:18:07;;;;;;;28.35;4.25;;;;;;;12.27;61.48;100407.00;5003759;28;20061;-70
2021/11/18 01:20:34;;;;;;;27.13;4.03;;;;;;;12.51;60.98;100406.94;5009468;28;20037;-70
2021/11/18 01:23:04;;;;;;;21.55;3.60;;;;;;;12.22;61.77;100395.25;5009144;28;20040;-70
2021/11/18 01:25:30;;;;;;;26.67;3.65;;;;;;;12.09;62.58;100380.13;5003083;28;20073;-70
2021/11/18 01:27:56;;;;;;;28.08;4.18;;;;;;;12.09;62.48;100389.03;4997762;28;20034;-70
2021/11/18 01:30:25;;;;;;;24.27;3.60;;;;;;;12.28;61.88;100402.38;5001044;28;20453;-70
2021/11/18 01:32:52;;;;;;;27.92;4.22;;;;;;;12.52;61.65;100392.38;4998109;28;20038;-70
2021/11/18 01:35:18;;;;;;;23.23;4.30;;;;;;;12.56;61.48;100392.72;4997968;28;20045;-70
2021/11/18 01:37:44;;;;;;;25.63;4.30;;;;;;;12.48;61.46;100390.41;4999050;28;20069;-70
2021/11/18 01:40:14;;;;;;;29.90;4.07;;;;;;;12.62;61.39;100401.72;4999171;28;20040;-70
2021/11/18 01:42:41;;;;;;;27.48;4.18;;;;;;;12.69;61.16;100415.94;5003910;28;20133;-70
2021/11/18 01:45:08;;;;;;;20.42;4.40;;;;;;;12.69;61.20;100418.63;5010509;28;20026;-70
2021/11/18 01:47:34;;;;;;;24.55;4.38;;;;;;;12.62;61.58;100421.50;5007559;28;20125;-70
2021/11/18 01:50:00;;;;;;;21.52;3.97;;;;;;;12.31;62.62;100439.72;5014711;28;20118;-70
2021/11/18 01:52:28;;;;;;;25.13;4.15;;;;;;;12.61;62.07;100435.22;5014651;28;20056;-70
2021/11/18 01:54:55;;;;;;;30.10;4.07;;;;;;;12.17;62.86;100428.38;5008583;28;20036;-70
2021/11/18 01:57:26;;;;;;;23.98;3.55;;;;;;;12.45;62.18;100443.00;5007517;28;20072;-71
2021/11/18 01:59:52;;;;;;;22.73;3.70;;;;;;;12.56;61.82;100439.47;5003749;28;20034;-70
2021/11/18 02:02:24;;;;;;;21.92;3.72;;;;;;;12.53;62.25;100442.66;5004928;28;20093;-70
2021/11/18 02:05:25;;;;;;;29.13;4.43;;;;;;;12.30;62.69;100428.13;5014815;28;20029;-70
2021/11/18 02:07:52;;;;;;;34.60;3.80;;;;;;;12.37;62.64;100408.25;5003583;28;20041;-70
2021/11/18 02:10:40;;;;;;;29.77;4.03;;;;;;;12.24;63.08;100393.13;5009101;28;20034;-70
2021/11/18 02:13:08;;;;;;;26.70;3.83;;;;;;;12.51;62.43;100395.31;5010846;28;20499;-70
2021/11/18 02:15:36;;;;;;;12.80;2.78;;;;;;;12.45;62.61;100388.97;5004521;28;20091;-71
2021/11/18 02:18:10;;;;;;;25.05;3.47;;;;;;;12.62;62.59;100377.41;5006747;28;20116;-70
2021/11/18 02:20:35;;;;;;;25.73;4.85;;;;;;;12.65;62.26;100374.22;5008752;28;20475;-71
2021/11/18 02:23:10;;;;;;;21.27;3.35;;;;;;;12.76;62.47;100381.47;5003829;28;20041;-70
2021/11/18 02:25:36;;;;;;;24.58;3.65;;;;;;;12.96;61.64;100383.75;5003055;28;20094;-71
2021/11/18 02:28:01;;;;;;;21.05;3.67;;;;;;;12.49;63.53;100379.34;5000017;28;20034;-70
2021/11/18 02:30:28;;;;;;;29.52;4.40;;;;;;;12.63;63.29;100369.09;4997453;28;20062;-71
2021/11/18 02:32:55;;;;;;;17.38;3.00;;;;;;;12.53;63.97;100367.00;5009927;28;20498;-71
2021/11/18 02:35:28;;;;;;;21.48;3.42;;;;;;;12.40;64.36;100387.00;5007748;28;20419;-71
2021/11/18 02:37:55;;;;;;;20.58;2.85;;;;;;;12.43;64.80;100404.59;4989469;28;20045;-70
2021/11/18 02:40:23;;;;;;;21.95;3.22;;;;;;;12.14;65.63;100410.75;5003988;28;20072;-70
2021/11/18 02:42:50;;;;;;;26.98;3.63;;;;;;;12.65;64.32;100426.41;5002719;28;20046;-70
2021/11/18 02:45:19;;;;;;;20.92;3.03;;;;;;;12.88;63.49;100424.69;5012240;28;20621;-71
2021/11/18 02:47:45;;;;;;;24.85;3.58;;;;;;;12.95;63.17;100428.06;4995349;28;20122;-71
2021/11/18 02:50:15;;;;;;;27.90;3.97;;;;;;;12.79;63.54;100429.66;4997010;28;20538;-71
2021/11/18 02:52:40;;;;;;;26.45;3.70;;;;;;;12.84;63.41;100415.41;5006892;28;20041;-71
2021/11/18 02:55:19;;;;;;;20.50;3.03;;;;;;;12.70;64.18;100423.81;5006124;28;20041;-71
2021/11/18 02:57:45;;;;;;;22.63;3.13;;;;;;;12.79;64.02;100418.84;5001387;28;20065;-70
2021/11/18 03:00:14;;;;;;;32.83;4.03;;;;;;;12.85;63.42;100409.75;5002273;28;20045;-70
2021/11/18 03:02:40;;;;;;;26.05;3.60;;;;;;;12.79;63.58;100418.03;5005635;28;20519;-71
2021/11/18 03:05:07;;;;;;;28.50;4.28;;;;;;;12.55;64.39;100412.69;5000812;28;20122;-71
2021/11/18 03:07:33;;;;;;;28.52;3.83;;;;;;;12.57;64.27;100418.69;4999021;28;20034;-71
2021/11/18 03:09:59;;;;;;;24.75;3.85;;;;;;;12.47;64.88;100423.88;4999349;28;20036;-71
2021/11/18 03:12:24;;;;;;;18.85;2.85;;;;;;;12.27;65.50;100430.47;5006041;28;20116;-71
2021/11/18 03:14:50;;;;;;;24.60;3.40;;;;;;;12.27;65.71;100438.56;4987512;28;20414;-71
2021/11/18 03:17:16;;;;;;;27.98;3.42;;;;;;;12.37;65.52;100432.56;5004384;28;20026;-71
2021/11/18 03:19:41;;;;;;;27.65;4.20;;;;;;;12.52;65.05;100424.78;5004989;28;20030;-71
2021/11/18 03:22:07;;;;;;;21.60;3.40;;;;;;;12.36;65.82;100428.22;4983482;28;20436;-71
2021/11/18 03:24:33;;;;;;;26.30;3.72;;;;;;;12.35;65.91;100432.00;5007737;28;20113;-71
2021/11/18 03:26:58;;;;;;;29.00;3.83;;;;;;;12.33;66.24;100415.19;5008457;28;20152;-71
2021/11/18 03:29:24;;;;;;;19.20;3.05;;;;;;;12.30;66.67;100405.69;5010451;28;20048;-71
2021/11/18 03:31:50;;;;;;;26.85;5.30;;;;;;;12.22;67.08;100381.75;5005355;28;20037;-71
2021/11/18 03:34:20;;;;;;;18.23;3.78;;;;;;;12.43;66.83;100391.94;4974068;28;20503;-70
2021/11/18 03:36:47;;;;;;;24.50;3.25;;;;;;;12.28;67.25;100376.22;4995347;28;20358;-70
2021/11/18 03:39:13;;;;;;;23.58;3.25;;;;;;;12.27;67.78;100382.69;5002807;28;20034;-70
2021/11/18 03:41:41;;;;;;;30.48;3.95;;;;;;;12.41;67.36;100383.25;5005321;28;20034;-71
2021/11/18 03:44:09;;;;;;;23.52;3.38;;;;;;;12.71;66.56;100379.50;5018373;28;20030;-70
2021/11/18 03:46:41;;;;;;;22.05;3.55;;;;;;;12.85;66.09;100390.03;5007734;28;20033;-71
2021/11/18 03:49:08;;;;;;;21.83;3.70;;;;;;;13.00;65.88;100393.00;5002903;28;20030;-70
2021/11/18 03:51:34;;;;;;;22.55;3.45;;;;;;;12.61;66.81;100386.59;5008687;28;20065;-70
2021/11/18 03:54:01;;;;;;;16.65;3.47;;;;;;;12.74;67.27;100380.88;5009196;28;20502;-70
2021/11/18 03:56:33;;;;;;;23.02;3.47;;;;;;;12.68;67.52;100387.25;5005641;28;20033;-70
2021/11/18 03:58:58;;;;;;;22.48;4.20;;;;;;;12.56;68.51;100388.13;5011344;28;20753;-70
2021/11/18 04:01:24;;;;;;;21.77;3.85;;;;;;;12.81;67.63;100392.38;4993540;28;20559;-70
2021/11/18 04:03:54;;;;;;;24.08;3.40;;;;;;;13.10;66.34;100384.25;5008823;28;20498;-70
2021/11/18 04:06:20;;;;;;;20.30;3.15;;;;;;;12.84;66.69;100383.78;5012183;28;20434;-70
2021/11/18 04:08:46;;;;;;;22.05;3.55;;;;;;;12.71;67.08;100365.16;5010224;28;20034;-70
2021/11/18 04:11:12;;;;;;;29.58;3.97;;;;;;;12.72;67.18;100361.41;5011910;28;20072;-70
2021/11/18 04:13:37;;;;;;;22.20;3.17;;;;;;;12.84;66.93;100364.06;5007859;28;20535;-70
2021/11/18 04:16:03;;;;;;;26.10;4.30;;;;;;;12.99;66.66;100367.03;5002848;28;20061;-70
2021/11/18 04:18:29;;;;;;;22.60;3.90;;;;;;;12.94;66.61;100364.25;5014035;28;20510;-70
2021/11/18 04:20:55;;;;;;;28.58;3.88;;;;;;;12.92;66.73;100363.66;5010525;28;20061;-70
2021/11/18 04:23:23;;;;;;;23.48;3.50;;;;;;;13.01;66.38;100369.47;5006749;28;20084;-71
2021/11/18 04:25:50;;;;;;;20.77;3.15;;;;;;;12.81;67.13;100368.06;5013876;28;20121;-70
2021/11/18 04:28:16;;;;;;;28.10;3.97;;;;;;;13.22;66.03;100373.38;5007047;28;20117;-70
2021/11/18 04:30:49;;;;;;;17.27;3.13;;;;;;;13.16;66.25;100372.44;5006851;28;20042;-70
2021/11/18 04:33:15;;;;;;;17.30;3.55;;;;;;;13.17;66.58;100378.69;5013526;28;20045;-70
2021/11/18 04:35:41;;;;;;;24.38;3.72;;;;;;;13.19;66.44;100379.28;5004857;28;20407;-70
2021/11/18 04:38:07;;;;;;;17.50;3.05;;;;;;;13.31;65.89;100377.31;5007196;28;20030;-70
2021/11/18 04:40:35;;;;;;;22.23;3.75;;;;;;;13.26;66.38;100371.81;5003416;28;20117;-70
2021/11/18 04:43:02;;;;;;;18.65;3.40;;;;;;;13.46;66.04;100365.97;5001805;28;20046;-71
2021/11/18 04:45:27;;;;;;;12.85;2.88;;;;;;;13.47;66.24;100369.47;5005281;28;20048;-70
2021/11/18 04:47:53;;;;;;;17.35;2.78;;;;;;;13.31;66.50;100368.41;4997598;28;20038;-72
2021/11/18 04:50:20;;;;;;;19.67;2.40;;;;;;;13.49;66.27;100377.34;5015404;28;20035;-71
2021/11/18 04:52:46;;;;;;;16.83;2.95;;;;;;;13.45;66.64;100383.25;5011693;28;20044;-71
2021/11/18 04:55:16;;;;;;;15.32;2.38;;;;;;;13.68;65.98;100396.84;5011829;28;20096;-70
2021/11/18 04:57:42;;;;;;;14.00;2.22;;;;;;;13.41;67.16;100394.78;5009684;28;20025;-71
2021/11/18 05:00:16;;;;;;;19.85;3.25;;;;;;;13.65;66.65;100392.78;5009580;28;20057;-70
2021/11/18 05:02:41;;;;;;;14.32;2.17;;;;;;;13.86;65.66;100403.91;5010051;28;20046;-70
2021/11/18 05:05:08;;;;;;;14.82;2.00;;;;;;;13.84;65.93;100395.22;5005595;28;20047;-70
2021/11/18 05:07:33;;;;;;;11.73;2.22;;;;;;;13.86;66.27;100385.75;5008470;28;20038;-70
2021/11/18 05:09:59;;;;;;;11.68;1.70;;;;;;;13.95;66.11;100394.28;5004260;28;20065;-70
2021/11/18 05:12:24;;;;;;;7.35;1.20;;;;;;;14.03;66.21;100390.31;5005012;28;20046;-70
2021/11/18 05:14:51;;;;;;;8.00;1.80;;;;;;;14.08;66.10;100390.38;5005783;28;20518;-70
2021/11/18 05:17:16;;;;;;;9.18;1.40;;;;;;;13.97;66.28;100402.16;5001847;28;20035;-70
2021/11/18 05:19:42;;;;;;;10.13;1.33;;;;;;;13.84;66.85;100393.31;5004896;28;20046;-70
2021/11/18 05:22:08;;;;;;;7.75;1.00;;;;;;;14.07;66.21;100391.47;5002279;28;20057;-71
2021/11/18 05:24:33;;;;;;;7.57;1.30;;;;;;;14.10;65.96;100396.38;5012980;28;20032;-70
2021/11/18 05:26:59;;;;;;;8.65;1.02;;;;;;;14.17;65.30;100398.91;5003834;28;20038;-70
2021/11/18 05:29:25;;;;;;;9.10;1.48;;;;;;;14.27;65.41;100392.81;5000240;28;20034;-70
2021/11/18 05:31:51;;;;;;;4.90;1.20;;;;;;;14.26;65.70;100405.53;5001654;28;20030;-70
2021/11/18 05:34:17;;;;;;;6.13;1.20;;;;;;;14.41;65.44;100404.09;5000261;28;20407;-70
2021/11/18 05:36:42;;;;;;;8.93;1.00;;;;;;;14.25;66.03;100409.31;5000986;28;20113;-71
2021/11/18 05:39:08;;;;;;;8.05;1.50;;;;;;;14.34;65.81;100396.16;5001083;28;20391;-70
2021/11/18 05:41:34;;;;;;;11.02;1.30;;;;;;;14.29;65.88;100390.69;4983025;28;20038;-70
2021/11/18 05:44:03;;;;;;;5.90;1.02;;;;;;;14.43;65.47;100400.09;5006842;28;20383;-71
2021/11/18 05:46:31;;;;;;;7.32;1.48;;;;;;;14.47;65.58;100409.34;5007674;28;20042;-70
2021/11/18 05:48:58;;;;;;;6.03;1.02;;;;;;;14.40;65.79;100406.00;5006153;28;20112;-70
2021/11/18 05:51:23;;;;;;;10.27;1.23;;;;;;;14.17;66.77;100404.34;5005102;28;20038;-70
2021/11/18 05:53:49;;;;;;;6.47;1.25;;;;;;;14.35;66.30;100401.31;4998262;28;20096;-71
2021/11/18 05:56:17;;;;;;;11.25;1.40;;;;;;;13.95;67.69;100415.94;4997190;28;20030;-70
2021/11/18 05:58:46;;;;;;;10.23;2.13;;;;;;;14.15;66.72;100415.44;4995705;28;20468;-70
2021/11/18 06:01:12;;;;;;;9.35;1.15;;;;;;;13.93;67.93;100411.84;4984745;28;20036;-70
2021/11/18 06:03:39;;;;;;;6.20;1.38;;;;;;;14.06;67.53;100408.78;4997682;28;20112;-70
2021/11/18 06:06:05;;;;;;;6.97;1.40;;;;;;;14.18;67.50;100412.22;5006071;28;20034;-71
2021/11/18 06:08:32;;;;;;;5.45;1.15;;;;;;;14.05;67.58;100417.97;4985392;28;20030;-70
2021/11/18 06:10:59;;;;;;;7.38;1.52;;;;;;;14.07;67.77;100429.38;4999370;28;20044;-71
2021/11/18 06:13:24;;;;;;;7.38;1.20;;;;;;;14.16;67.22;100427.91;5005875;28;20045;-70
2021/11/18 06:15:50;;;;;;;6.50;1.25;;;;;;;14.38;66.50;100429.00;5008053;28;20415;-71
2021/11/18 06:18:16;;;;;;;7.13;1.00;;;;;;;14.16;66.81;100421.66;5010203;28;20038;-71
2021/11/18 06:20:42;;;;;;;8.65;1.13;;;;;;;14.13;67.88;100424.88;4995984;28;20030;-71
2021/11/18 06:23:13;;;;;;;6.75;1.58;;;;;;;14.11;68.30;100419.69;4994188;28;20464;-70
2021/11/18 06:25:39;;;;;;;5.47;1.42;;;;;;;13.98;68.55;100406.50;4998868;28;20066;-69
2021/11/18 06:28:07;;;;;;;5.90;1.50;;;;;;;13.99;68.66;100406.25;4996378;28;20038;-70
2021/11/18 06:30:47;;;;;;;6.88;1.33;;;;;;;13.97;69.10;100402.97;4997420;28;20038;-69
2021/11/18 06:33:13;;;;;;;5.82;1.33;;;;;;;13.99;68.65;100410.84;5007097;28;20038;-69
2021/11/18 06:35:39;;;;;;;5.32;1.13;;;;;;;13.98;68.32;100418.16;5011417;28;20379;-70
2021/11/18 06:38:05;;;;;;;12.18;1.38;;;;;;;14.09;68.24;100429.94;4964903;28;20041;-69
2021/11/18 06:40:31;;;;;;;10.32;1.85;;;;;;;14.21;67.75;100438.00;5006864;28;20403;-70
2021/11/18 06:42:57;;;;;;;6.30;1.25;;;;;;;14.17;67.57;100445.81;5001122;28;20034;-72
2021/11/18 06:45:27;;;;;;;8.38;1.40;;;;;;;14.23;67.75;100451.28;5004213;28;20176;-73
2021/11/18 06:47:53;;;;;;;6.97;1.42;;;;;;;14.21;68.20;100448.81;5004315;28;20125;-71
2021/11/18 06:50:20;;;;;;;5.00;1.60;;;;;;;14.26;67.80;100448.88;5008610;28;20096;-71
2021/11/18 06:52:45;;;;;;;11.93;1.83;;;;;;;13.96;69.37;100444.69;4989406;28;20348;-71
2021/11/18 06:55:13;;;;;;;7.80;1.98;;;;;;;14.00;69.17;100436.84;5007686;28;20042;-71
2021/11/18 06:57:39;;;;;;;5.47;1.40;;;;;;;14.07;68.80;100428.56;5007725;28;20030;-73
2021/11/18 07:00:06;;;;;;;8.27;1.60;;;;;;;13.97;68.75;100426.53;5007111;28;20033;-72
2021/11/18 07:02:32;;;;;;;5.10;1.58;;;;;;;13.83;69.56;100434.19;5006822;28;20029;-72
2021/11/18 07:04:58;;;;;;;7.30;1.70;;;;;;;13.84;69.91;100428.50;5007889;28;20038;-72
2021/11/18 07:07:23;;;;;;;5.75;2.08;;;;;;;13.74;70.00;100437.31;5006002;28;20041;-71
2021/11/18 07:09:49;;;;;;;3.92;1.70;;;;;;;13.71;70.81;100431.56;5005817;28;20569;-72
2021/11/18 07:12:18;;;;;;;6.03;1.83;;;;;;;13.67;70.94;100441.22;5004435;28;20391;-73
2021/11/18 07:14:44;;;;;;;8.52;2.03;;;;;;;13.73;71.28;100441.09;4993945;28;20127;-74
2021/11/18 07:17:09;;;;;;;5.65;2.08;;;;;;;13.99;69.92;100435.22;4975445;28;20066;-75
2021/11/18 07:19:36;;;;;;;4.50;2.33;;;;;;;13.98;70.00;100430.88;5001718;28;20034;-73
2021/11/18 07:22:02;;;;;;;6.60;2.28;;;;;;;13.76;71.28;100429.75;5000780;28;20037;-74
2021/11/18 07:24:29;;;;;;;6.13;3.28;;;;;;;13.93;70.50;100437.03;5004671;28;20484;-73
2021/11/18 07:26:55;;;;;;;6.97;2.95;;;;;;;13.82;71.45;100427.13;5006075;28;20097;-71
2021/11/18 07:29:22;;;;;;;5.18;3.22;;;;;;;14.10;70.75;100431.59;5002874;28;20122;-72
2021/11/18 07:31:48;;;;;;;10.75;3.75;;;;;;;14.08;70.75;100427.50;5005366;28;20121;-71
2021/11/18 07:34:16;;;;;;;6.93;3.65;;;;;;;14.16;70.14;100427.91;4986307;28;20037;-75
2021/11/18 07:36:43;;;;;;;7.63;4.95;;;;;;;14.31;70.00;100427.28;4991465;28;20476;-72
2021/11/18 07:39:09;;;;;;;5.32;3.88;;;;;;;14.33;69.89;100430.56;5006003;28;20026;-74
2021/11/18 07:41:34;;;;;;;6.72;4.63;;;;;;;14.43;69.67;100434.47;5006659;28;20038;-75
2021/11/18 07:43:59;;;;;;;4.22;3.80;;;;;;;14.31;70.69;100435.41;5008416;28;20025;-73
2021/11/18 07:46:25;;;;;;;5.05;3.75;;;;;;;14.20;71.39;100445.31;5006482;28;20400;-70
2021/11/18 07:48:51;;;;;;;5.65;3.40;;;;;;;14.47;70.53;100436.44;4999280;28;20395;-71
2021/11/18 07:51:19;;;;;;;10.00;3.63;;;;;;;14.77;69.23;100435.22;5009590;28;20037;-70
2021/11/18 07:53:46;;;;;;;7.68;3.60;;;;;;;14.52;70.42;100424.84;5005718;28;20073;-73
2021/11/18 07:56:13;;;;;;;6.32;3.10;;;;;;;14.32;71.21;100426.22;5006016;28;20479;-74
2021/11/18 07:58:39;;;;;;;5.28;3.35;;;;;;;14.45;71.05;100421.50;5002400;28;20044;-74
2021/11/18 08:01:06;;;;;;;4.57;2.65;;;;;;;14.44;70.88;100428.81;5003999;28;20099;-73
2021/11/18 08:03:32;;;;;;;7.57;3.00;;;;;;;14.01;72.87;100422.25;4993344;28;20107;-72
2021/11/18 08:05:59;;;;;;;5.68;2.92;;;;;;;14.32;71.88;100425.41;5008180;28;20022;-72
2021/11/18 08:08:24;;;;;;;5.72;2.60;;;;;;;13.96;73.26;100412.19;5005640;28;20033;-72
2021/11/18 08:10:52;;;;;;;5.85;2.67;;;;;;;14.43;72.10;100434.47;5007476;28;20115;-72
2021/11/18 08:13:17;;;;;;;5.15;2.30;;;;;;;14.27;72.19;100447.00;4990572;28;20483;-72
2021/11/18 08:15:43;;;;;;;4.50;2.00;;;;;;;14.63;71.09;100458.31;5004544;28;20064;-73
2021/11/18 08:18:09;;;;;;;5.43;2.20;;;;;;;14.44;71.92;100461.34;5009363;28;20042;-72
2021/11/18 08:20:34;;;;;;;5.70;2.08;;;;;;;14.80;70.42;100466.41;5005747;28;20703;-72
2021/11/18 08:23:00;;;;;;;4.68;1.90;;;;;;;14.87;70.26;100474.38;5012701;28;20038;-72
2021/11/18 08:25:29;;;;;;;2.78;1.65;;;;;;;14.78;70.44;100480.22;5006278;28;20053;-73
2021/11/18 08:27:54;;;;;;;4.68;1.83;;;;;;;14.68;70.79;100468.41;5007083;28;20037;-73
2021/11/18 08:30:24;;;;;;;8.82;2.30;;;;;;;14.66;71.21;100479.50;5011985;28;20025;-72
2021/11/18 08:32:53;;;;;;;3.78;1.70;;;;;;;14.70;71.01;100466.28;5010545;28;20057;-72
2021/11/18 08:35:24;;;;;;;1.63;1.30;;;;;;;14.99;69.91;100472.34;5008349;28;20121;-73
2021/11/18 08:37:54;;;;;;;5.15;1.88;;;;;;;14.95;69.52;100479.34;4999102;28;20037;-73
2021/11/18 08:40:20;;;;;;;1.85;1.30;;;;;;;14.99;70.14;100466.91;5004587;28;20040;-73
2021/11/18 08:42:46;;;;;;;4.60;1.27;;;;;;;14.75;71.10;100463.63;5003720;28;20042;-73
2021/11/18 08:45:12;;;;;;;6.00;1.40;;;;;;;14.84;70.66;100478.38;5006350;28;20041;-73
2021/11/18 08:47:39;;;;;;;4.40;1.55;;;;;;;15.00;69.90;100468.53;5004953;28;20029;-72
2021/11/18 08:50:10;;;;;;;5.53;1.45;;;;;;;14.90;70.98;100463.00;5011678;28;20032;-72
2021/11/18 08:52:36;;;;;;;2.60;1.02;;;;;;;15.06;70.09;100477.56;4990756;28;20121;-72
2021/11/18 08:55:10;;;;;;;2.90;0.85;;;;;;;14.81;70.88;100481.59;5007791;28;20657;-71
2021/11/18 08:57:37;;;;;;;4.85;1.00;;;;;;;15.20;69.75;100483.41;5008528;28;20100;-71
2021/11/18 09:00:11;;;;;;;1.85;0.85;;;;;;;15.17;70.29;100490.19;5010714;28;21928;-72
2021/11/18 09:02:36;;;;;;;3.42;1.00;;;;;;;15.32;69.39;100486.78;5012138;28;20076;-72
2021/11/18 09:05:02;;;;;;;2.67;0.82;;;;;;;15.32;69.89;100492.22;5009776;28;20050;-71
2021/11/18 09:07:30;;;;;;;7.88;1.30;;;;;;;15.49;69.38;100492.13;5010941;28;20026;-71
2021/11/18 09:09:57;;;;;;;4.82;0.80;;;;;;;15.65;69.00;100508.56;5008650;28;20037;-71
2021/11/18 09:12:26;;;;;;;1.95;0.75;;;;;;;15.75;68.34;100499.66;5010290;28;20037;-71
2021/11/18 09:14:53;;;;;;;1.98;0.90;;;;;;;15.51;69.21;100508.13;5010783;28;20038;-71
2021/11/18 09:17:19;;;;;;;3.70;1.00;;;;;;;15.78;68.17;100507.28;5009419;28;20044;-71
2021/11/18 09:19:45;;;;;;;2.83;0.98;;;;;;;15.67;68.94;100530.84;5009661;28;20037;-71
2021/11/18 09:22:12;;;;;;;1.95;0.60;;;;;;;15.74;68.42;100538.75;5007637;28;20053;-72
2021/11/18 09:24:44;;;;;;;3.13;0.77;;;;;;;16.17;67.65;100536.16;4991245;28;20038;-71
2021/11/18 09:27:16;;;;;;;0.82;0.65;;;;;;;16.75;65.66;100540.84;4994251;28;20101;-74
2021/11/18 09:29:44;;;;;;;3.03;1.08;;;;;;;16.64;65.83;100542.72;5006409;28;20056;-72
2021/11/18 09:32:10;;;;;;;3.35;0.82;;;;;;;16.80;65.13;100540.91;5009129;28;20061;-72
2021/11/18 09:34:36;;;;;;;7.10;1.20;;;;;;;16.96;64.69;100552.66;5003704;28;20121;-72
2021/11/18 09:37:02;;;;;;;2.42;1.10;;;;;;;16.74;64.93;100542.78;4996783;28;20579;-72
2021/11/18 09:39:28;;;;;;;6.90;1.10;;;;;;;16.94;64.60;100552.94;5004852;28;20034;-72
2021/11/18 09:42:02;;;;;;;3.15;1.00;;;;;;;16.48;65.67;100548.06;4996037;28;20427;-71
2021/11/18 09:44:57;;;;;;;0.80;0.80;;;;;;;16.68;65.38;100552.00;5011026;28;20037;-72
2021/11/18 09:48:05;;;;;;;2.30;1.05;;;;;;;16.56;65.64;100578.56;5009296;28;20538;-70
2021/11/18 09:50:55;;;;;;;3.65;1.10;;;;;;;16.42;65.86;100564.59;5006548;28;20097;-69
2021/11/18 09:53:51;;;;;;;4.68;0.90;;;;;;;16.46;65.52;100554.84;5001953;28;20042;-70
2021/11/18 09:56:42;;;;;;;4.70;1.20;;;;;;;16.80;64.53;100562.69;5000601;28;20041;-72
2021/11/18 09:59:22;;;;;;;4.13;1.20;;;;;;;16.77;64.62;100563.19;5004702;28;20026;-72
2021/11/18 10:02:00;;;;;;;3.97;1.48;;;;;;;16.83;64.48;100554.78;5005054;28;20034;-72
2021/11/18 10:04:34;;;;;;;2.78;1.50;;;;;;;17.09;63.72;100546.75;4996817;28;20737;-72
2021/11/18 10:07:07;;;;;;;3.15;2.22;;;;;;;16.92;63.34;100555.13;5003773;28;20049;-72
2021/11/18 10:10:01;;;;;;;7.00;2.63;;;;;;;16.54;64.83;100538.03;5004030;28;20113;-72
2021/11/18 10:12:55;;;;;;;2.55;2.25;;;;;;;16.03;65.68;100539.31;4997354;28;20051;-72
2021/11/18 10:15:30;;;;;;;4.72;2.42;;;;;;;16.76;64.49;100550.66;4999975;28;20034;-72
2021/11/18 10:18:12;;;;;;;2.53;1.60;;;;;;;16.23;65.72;100527.81;4998786;28;20037;-71
2021/11/18 10:20:41;;;;;;;3.30;1.30;;;;;;;16.57;64.88;100536.69;4961944;28;20047;-71
2021/11/18 10:23:14;;;;;;;4.63;1.20;;;;;;;16.60;64.28;100530.72;4972854;28;20037;-72
2021/11/18 10:25:44;;;;;;;1.15;0.90;;;;;;;16.30;65.82;100524.03;5020117;28;20056;-72
2021/11/18 10:28:32;;;;;;;1.95;0.70;;;;;;;16.63;64.44;100536.44;5005822;28;20041;-71
2021/11/18 10:31:09;;;;;;;1.20;0.57;;;;;;;16.27;65.12;100497.38;5005659;28;20045;-71
2021/11/18 10:33:40;;;;;;;1.42;0.43;;;;;;;16.25;65.54;100513.94;5007156;28;20132;-72
2021/11/18 10:36:12;;;;;;;1.05;0.40;;;;;;;16.30;65.44;100502.28;5001675;28;20038;-71
2021/11/18 10:39:01;;;;;;;2.03;0.50;;;;;;;16.53;64.75;100499.16;5004771;28;20387;-71
2021/11/18 10:41:32;;;;;;;2.75;0.60;;;;;;;16.11;65.94;100497.28;5002210;28;20518;-71
2021/11/18 10:44:18;;;;;;;1.33;0.57;;;;;;;16.27;65.34;100495.47;4999493;28;20471;-72
2021/11/18 10:47:15;;;;;;;2.53;0.45;;;;;;;15.94;66.29;100505.56;5007726;28;20026;-71
2021/11/18 10:50:04;;;;;;;0.40;0.20;;;;;;;16.32;65.29;100491.97;5008787;28;20033;-71
2021/11/18 10:52:36;;;;;;;1.30;0.28;;;;;;;16.39;64.97;100484.41;5006936;28;20033;-72
2021/11/18 10:55:11;;;;;;;1.42;0.40;;;;;;;16.53;64.88;100484.72;5003021;28;20034;-73
2021/11/18 10:57:53;;;;;;;1.48;0.20;;;;;;;16.48;64.82;100473.84;5002301;28;20038;-72
2021/11/18 11:00:21;;;;;;;0.30;0.20;;;;;;;16.46;64.46;100484.16;5005858;28;20114;-71
2021/11/18 11:02:47;;;;;;;0.38;0.38;;;;;;;16.14;65.46;100496.75;5011545;28;20507;-72
2021/11/18 11:05:27;;;;;;;0.98;0.40;;;;;;;16.08;65.59;100482.31;5015565;28;20110;-71
2021/11/18 11:07:53;;;;;;;3.85;0.47;;;;;;;16.09;65.88;100491.28;5005544;28;20049;-72
2021/11/18 11:10:23;;;;;;;1.20;0.43;;;;;;;16.06;65.94;100486.38;5007645;28;20038;-72
2021/11/18 11:13:13;;;;;;;2.45;0.30;;;;;;;16.32;64.92;100491.97;5005983;28;20684;-72
2021/11/18 11:15:48;;;;;;;1.30;0.40;;;;;;;16.01;65.75;100492.56;4988576;28;20038;-72
2021/11/18 11:18:31;;;;;;;0.95;0.32;;;;;;;15.94;65.89;100483.81;5005200;28;20103;-72
2021/11/18 11:21:15;;;;;;;2.08;0.60;;;;;;;15.97;66.04;100496.88;5001377;28;20045;-72
2021/11/18 11:24:21;;;;;;;4.20;2.17;;;;;;;15.98;66.38;100495.81;5001510;28;20491;-72
2021/11/18 11:27:07;;;;;;;4.90;1.85;;;;;;;16.05;66.30;100499.13;5006047;28;20033;-71
2021/11/18 11:29:50;;;;;;;4.13;2.28;;;;;;;16.05;66.37;100495.59;5002687;28;20506;-71
2021/11/18 11:32:45;;;;;;;2.92;2.35;;;;;;;16.23;65.89;100500.63;5003933;28;20038;-72